Portada
METAR-TAF:

METAR-TAF

Aeroports :

Ankara-Esenboğa, Turquia

latitud: 40-07N, longitud: 032-59E, altitud: 953 m

Observació

L'informe es va fer fa 30 minuts, a les 16:50 UTC
Vent 5 kt del Nord-Est
Temperatura -3°C
Humitat 68%
Pressió 1030 hPa
Visibilitat 10 km o més
sense núvols per sota de 1500 mi sense presència de cumulonimbus.

METAR: LTAC 211650Z 04005KT CAVOK M03/M08 Q1030 NOSIG RMK RWY21L VRB01KT RWY03L 02003KT RWY21R 00000KT

Hora: 20:20 (17:20 UTC)

Pronòstic

L'informe es va fer fa 6 hores i 40 minuts, a les 10:40 UTC
Pronòstic vàlid del 21 a les 12 UTC al 22 a les 12 UTC
Vent 2 kt amb direcció variable
Visibilitat 10 km o més
Núvols disperses a una alçada de 4000 ft
Temporalment
l' 21 a les 12 UTC al 21 a les 15 UTC
Vent 12 kt del Nord
Temporalment
l' 22 a les 03 UTC al 22 a les 07 UTC
Visibilitat: 4000 m
boirina

TAF: LTAC 211040Z 2112/2212 VRB02KT 9999 SCT040 TEMPO 2112/2115 01012KT TEMPO 2203/2207 4000 BR

Observacions i pronòstics meteorològics de més de 4000 aeroports (METAR i TAF).

Les estacions disponibles són els punts grocs i vermells al mapa.

Posi el ratolí al punt desitjat per veure el nom de l'estació.

Feu clic per veure les observacions i els pronòstics meteorològics.

Per canviar el mapa: feu clic els botons verds amb una creu de color negre per apropar; al botó verd amb un guió per allunyar la imatge; o en les fletxes verdes per a mapes adjacents.


METAR-TAF: